Time;durP1;ratioP1;P1;durP2;ratioP2;P2;SDS_P1;SDS_P2;PMS_P1;PMS_P2;Temp;Humidity;BMP_temperature;BMP_pressure;BME280_temperature;BME280_humidity;BME280_pressure;Samples;Min_cycle;Max_cycle;Signal;HPM_P1;HPM_P2
2022/08/19 00:00:34;;;;;;;;;;;19.40;80.00;;;;;;5047498;28;19912;-81
2022/08/19 00:03:00;;;;;;;;;;;19.30;80.30;;;;;;5053490;28;19928;-81
2022/08/19 00:05:25;;;;;;;;;;;19.30;80.60;;;;;;5051857;28;19913;-80
2022/08/19 00:07:51;;;;;;;;;;;19.30;80.60;;;;;;5046630;28;19912;-81
2022/08/19 00:10:18;;;;;;;;;;;19.30;80.60;;;;;;5051209;28;20329;-81
2022/08/19 00:12:44;;;;;;;;;;;19.30;80.70;;;;;;5070898;28;19912;-81
2022/08/19 00:15:16;;;;;;;;;;;19.40;80.50;;;;;;5070499;28;20045;-81
2022/08/19 00:17:43;;;;;;;;;;;19.30;80.60;;;;;;5053725;28;19913;-80
2022/08/19 00:20:10;;;;;;;;;;;19.40;80.60;;;;;;5072279;28;19916;-82
2022/08/19 00:22:36;;;;;;;;;;;19.30;80.60;;;;;;5065017;28;19920;-82
2022/08/19 00:25:02;;;;;;;;;;;19.30;80.90;;;;;;5056393;28;20659;-82
2022/08/19 00:27:27;;;;;;;;;;;19.30;80.80;;;;;;5055972;28;19912;-82
2022/08/19 00:29:53;;;;;;;;;;;19.30;80.50;;;;;;5079563;28;19904;-81
2022/08/19 00:32:18;;;;;;;;;;;19.20;80.50;;;;;;5073759;28;20006;-82
2022/08/19 00:34:44;;;;;;;;;;;19.20;80.60;;;;;;5056373;28;19921;-82
2022/08/19 00:37:09;;;;;;;;;;;19.20;80.60;;;;;;5054347;28;19988;-81
2022/08/19 00:39:34;;;;;;;;;;;19.20;80.50;;;;;;5071788;28;19944;-81
2022/08/19 00:42:00;;;;;;;;;;;19.10;80.50;;;;;;5055061;28;20005;-81
2022/08/19 00:44:27;;;;;;;;;;;19.00;80.70;;;;;;5076225;28;20291;-82
2022/08/19 00:46:54;;;;;;;;;;;19.00;80.80;;;;;;5072333;28;19920;-82
2022/08/19 00:49:30;;;;;;;;;;;19.00;80.60;;;;;;5053723;28;19956;-81
2022/08/19 00:51:59;;;;;;;;;;;19.00;80.70;;;;;;5053145;28;20514;-82
2022/08/19 00:54:26;;;;;;;;;;;19.00;80.70;;;;;;5078212;28;19912;-81
2022/08/19 00:56:51;;;;;;;;;;;19.00;80.90;;;;;;5058196;28;19970;-82
2022/08/19 00:59:17;;;;;;;;;;;18.90;80.90;;;;;;5050864;28;20201;-81
2022/08/19 01:01:43;;;;;;;;;;;18.80;81.30;;;;;;5067614;28;19920;-82
2022/08/19 01:04:09;;;;;;;;;;;18.80;81.50;;;;;;5058861;28;20610;-82
2022/08/19 01:06:36;;;;;;;;;;;18.90;82.10;;;;;;5071026;28;19947;-82
2022/08/19 01:09:01;;;;;;;;;;;18.90;82.10;;;;;;5072161;28;19921;-82
2022/08/19 01:11:28;;;;;;;;;;;19.00;82.00;;;;;;5069912;28;19982;-82
2022/08/19 01:13:54;;;;;;;;;;;19.00;81.70;;;;;;5055993;28;19920;-82
2022/08/19 01:16:21;;;;;;;;;;;19.00;81.10;;;;;;5067009;28;19969;-81
2022/08/19 01:18:47;;;;;;;;;;;19.00;81.20;;;;;;5070655;28;19927;-82
2022/08/19 01:21:33;;;;;;;;;;;18.90;81.10;;;;;;5059887;28;19995;-82
2022/08/19 01:23:59;;;;;;;;;;;18.90;80.90;;;;;;5046586;28;19921;-81
2022/08/19 01:26:26;;;;;;;;;;;18.80;81.30;;;;;;5045336;28;20003;-82
2022/08/19 01:28:53;;;;;;;;;;;18.80;81.40;;;;;;5056045;28;19913;-81
2022/08/19 01:31:21;;;;;;;;;;;18.70;81.70;;;;;;5071981;28;19978;-82
2022/08/19 01:33:47;;;;;;;;;;;18.70;82.40;;;;;;5072933;28;20291;-82
2022/08/19 01:36:22;;;;;;;;;;;18.60;82.70;;;;;;5063209;28;20394;-81
2022/08/19 01:38:49;;;;;;;;;;;18.60;82.70;;;;;;5077760;28;20379;-82
2022/08/19 01:41:14;;;;;;;;;;;18.60;82.20;;;;;;5057411;28;20379;-81
2022/08/19 01:43:40;;;;;;;;;;;18.60;82.80;;;;;;5048028;28;19971;-81
2022/08/19 01:46:06;;;;;;;;;;;18.60;83.00;;;;;;5054582;28;20737;-81
2022/08/19 01:48:36;;;;;;;;;;;18.60;82.70;;;;;;5051528;28;20462;-80
2022/08/19 01:51:01;;;;;;;;;;;18.60;82.90;;;;;;5053046;28;19913;-81
2022/08/19 01:53:27;;;;;;;;;;;18.70;82.70;;;;;;5074139;28;20330;-81
2022/08/19 01:55:52;;;;;;;;;;;18.80;82.50;;;;;;5047178;28;19919;-83
2022/08/19 01:58:20;;;;;;;;;;;18.80;82.40;;;;;;5049426;28;20967;-82
2022/08/19 02:00:46;;;;;;;;;;;18.70;82.70;;;;;;5057657;28;19952;-83
2022/08/19 02:03:11;;;;;;;;;;;18.70;82.40;;;;;;5054475;28;19931;-83
2022/08/19 02:05:37;;;;;;;;;;;18.70;82.20;;;;;;5071389;28;20046;-83
2022/08/19 02:08:03;;;;;;;;;;;18.80;82.20;;;;;;5061798;28;19913;-82
2022/08/19 02:10:29;;;;;;;;;;;18.70;82.40;;;;;;5073876;28;19966;-83
2022/08/19 02:12:54;;;;;;;;;;;18.80;82.60;;;;;;5078037;28;19912;-83
2022/08/19 02:15:20;;;;;;;;;;;18.70;82.80;;;;;;5085881;28;19940;-82
2022/08/19 02:17:46;;;;;;;;;;;18.70;82.90;;;;;;5076179;28;19913;-83
2022/08/19 02:20:12;;;;;;;;;;;18.70;83.10;;;;;;5038170;28;19913;-83
2022/08/19 02:22:40;;;;;;;;;;;18.80;82.30;;;;;;5045513;28;19920;-83
2022/08/19 02:25:05;;;;;;;;;;;18.70;82.30;;;;;;5039957;28;20443;-82
2022/08/19 02:27:32;;;;;;;;;;;18.70;82.30;;;;;;5063135;28;20175;-83
2022/08/19 02:29:57;;;;;;;;;;;18.60;82.10;;;;;;5064607;28;19920;-82
2022/08/19 02:32:22;;;;;;;;;;;18.60;82.00;;;;;;5066352;28;19919;-83
2022/08/19 02:34:48;;;;;;;;;;;18.70;81.60;;;;;;5068351;28;20397;-83
2022/08/19 02:39:58;;;;;;;;;;;18.60;81.60;;;;;;5067393;28;19995;-82
2022/08/19 02:42:24;;;;;;;;;;;18.50;81.90;;;;;;5080068;22;19912;-81
2022/08/19 02:44:51;;;;;;;;;;;18.50;82.00;;;;;;5085901;28;19955;-82
2022/08/19 02:47:18;;;;;;;;;;;18.50;82.10;;;;;;5101933;28;19934;-82
2022/08/19 02:49:44;;;;;;;;;;;18.30;82.50;;;;;;5073297;28;19916;-81
2022/08/19 02:52:10;;;;;;;;;;;18.30;82.60;;;;;;5086809;28;19924;-82
2022/08/19 02:54:37;;;;;;;;;;;18.40;82.30;;;;;;5076324;28;19927;-82
2022/08/19 02:57:02;;;;;;;;;;;18.50;82.20;;;;;;5065259;28;19995;-81
2022/08/19 02:59:30;;;;;;;;;;;18.40;82.00;;;;;;5062284;28;19916;-81
2022/08/19 03:01:56;;;;;;;;;;;18.30;82.30;;;;;;5075499;28;20011;-82
2022/08/19 03:04:22;;;;;;;;;;;18.30;82.20;;;;;;5075145;28;19978;-82
2022/08/19 03:06:48;;;;;;;;;;;18.30;82.10;;;;;;5073802;28;20330;-83
2022/08/19 03:09:14;;;;;;;;;;;18.20;82.10;;;;;;5075761;28;19912;-82
2022/08/19 03:11:39;;;;;;;;;;;18.10;82.40;;;;;;5080174;28;19920;-82
2022/08/19 03:14:06;;;;;;;;;;;18.10;82.60;;;;;;5066915;28;19917;-82
2022/08/19 03:16:33;;;;;;;;;;;18.10;82.60;;;;;;5075002;28;19916;-82
2022/08/19 03:18:59;;;;;;;;;;;18.10;83.00;;;;;;5083944;28;19912;-82
2022/08/19 03:21:25;;;;;;;;;;;18.10;83.30;;;;;;5061668;28;19958;-82
2022/08/19 03:23:55;;;;;;;;;;;18.20;83.30;;;;;;5074266;28;20015;-81
2022/08/19 03:26:21;;;;;;;;;;;18.20;83.30;;;;;;5078569;28;20280;-82
2022/08/19 03:28:49;;;;;;;;;;;18.30;83.20;;;;;;5080280;28;19920;-82
2022/08/19 03:31:16;;;;;;;;;;;18.20;83.20;;;;;;5075327;28;20007;-81
2022/08/19 03:33:42;;;;;;;;;;;18.30;83.30;;;;;;5061964;28;20381;-82
2022/08/19 03:36:13;;;;;;;;;;;18.40;83.10;;;;;;5075828;28;19912;-81
2022/08/19 03:38:40;;;;;;;;;;;18.40;83.10;;;;;;5078758;28;19919;-81
2022/08/19 03:41:07;;;;;;;;;;;18.40;83.20;;;;;;5086742;28;19920;-81
2022/08/19 03:43:34;;;;;;;;;;;18.30;83.20;;;;;;5061517;28;19921;-82
2022/08/19 03:46:02;;;;;;;;;;;18.50;82.90;;;;;;5082669;28;19917;-82
2022/08/19 03:48:27;;;;;;;;;;;18.30;82.20;;;;;;5060831;28;19932;-82
2022/08/19 03:50:53;;;;;;;;;;;18.30;82.20;;;;;;5077442;28;19935;-82
2022/08/19 03:53:18;;;;;;;;;;;18.20;82.10;;;;;;5064962;28;19917;-82
2022/08/19 03:55:44;;;;;;;;;;;18.10;82.40;;;;;;5086119;28;19952;-82
2022/08/19 03:58:10;;;;;;;;;;;18.10;82.80;;;;;;5082273;28;19916;-81
2022/08/19 04:00:36;;;;;;;;;;;18.00;83.20;;;;;;5061998;28;19916;-83
2022/08/19 04:03:01;;;;;;;;;;;18.10;83.40;;;;;;5060375;28;19926;-83
2022/08/19 04:05:28;;;;;;;;;;;18.10;83.30;;;;;;5057845;28;19917;-83
2022/08/19 04:07:58;;;;;;;;;;;18.10;83.50;;;;;;5064592;28;19944;-84
2022/08/19 04:10:24;;;;;;;;;;;18.10;83.30;;;;;;5085347;28;19916;-82
2022/08/19 04:12:49;;;;;;;;;;;18.00;83.50;;;;;;5087673;28;19912;-83
2022/08/19 04:15:15;;;;;;;;;;;18.00;83.50;;;;;;5085237;28;20302;-83
2022/08/19 04:17:40;;;;;;;;;;;17.90;83.50;;;;;;5079072;28;20344;-83
2022/08/19 04:20:06;;;;;;;;;;;17.90;83.20;;;;;;5065516;28;19935;-83
2022/08/19 04:22:31;;;;;;;;;;;17.80;83.50;;;;;;5066169;28;19913;-82
2022/08/19 04:24:57;;;;;;;;;;;17.70;83.80;;;;;;5081236;28;19920;-83
2022/08/19 04:27:22;;;;;;;;;;;17.80;83.70;;;;;;5080487;28;19918;-82
2022/08/19 04:29:47;;;;;;;;;;;17.80;83.70;;;;;;5065721;28;19920;-82
2022/08/19 04:32:15;;;;;;;;;;;17.90;83.90;;;;;;5091749;28;19935;-82
2022/08/19 04:34:42;;;;;;;;;;;18.00;83.80;;;;;;5071486;28;19913;-82
2022/08/19 04:37:12;;;;;;;;;;;18.00;83.80;;;;;;5071374;28;19923;-82
2022/08/19 04:42:38;;;;;;;;;;;18.10;83.50;;;;;;5083113;28;19959;-82
2022/08/19 04:45:05;;;;;;;;;;;18.10;83.50;;;;;;5059839;28;20003;-83
2022/08/19 04:47:32;;;;;;;;;;;18.10;83.30;;;;;;5072520;28;19912;-83
2022/08/19 04:49:57;;;;;;;;;;;18.00;83.00;;;;;;5062981;28;20013;-82
2022/08/19 04:52:23;;;;;;;;;;;17.90;82.80;;;;;;5081561;28;20232;-82
2022/08/19 04:54:48;;;;;;;;;;;17.80;82.90;;;;;;5067053;28;19913;-83
2022/08/19 04:57:14;;;;;;;;;;;17.90;83.00;;;;;;5077016;28;19912;-86
2022/08/19 04:59:41;;;;;;;;;;;18.00;83.50;;;;;;5063112;28;19916;-85
2022/08/19 05:02:07;;;;;;;;;;;18.10;83.40;;;;;;5059524;28;19901;-84
2022/08/19 05:04:33;;;;;;;;;;;18.20;83.40;;;;;;5056001;28;19927;-83
2022/08/19 05:06:59;;;;;;;;;;;18.30;83.30;;;;;;5047712;28;19996;-81
2022/08/19 05:09:24;;;;;;;;;;;18.30;83.30;;;;;;5070304;28;19970;-82
2022/08/19 05:11:52;;;;;;;;;;;18.30;83.20;;;;;;5056821;28;19936;-82
2022/08/19 05:14:18;;;;;;;;;;;18.40;82.80;;;;;;5081240;28;19912;-82
2022/08/19 05:16:43;;;;;;;;;;;18.30;82.70;;;;;;5070512;28;20390;-82
2022/08/19 05:24:37;;;;;;;;;;;18.60;83.00;;;;;;5071114;28;19977;-81
2022/08/19 05:27:05;;;;;;;;;;;18.60;83.00;;;;;;5071787;28;19913;-82
2022/08/19 05:29:31;;;;;;;;;;;18.70;82.90;;;;;;5054301;28;19913;-84
2022/08/19 05:31:56;;;;;;;;;;;18.80;83.00;;;;;;5054365;28;20339;-84
2022/08/19 05:34:25;;;;;;;;;;;18.90;82.70;;;;;;5071952;28;19920;-86
2022/08/19 05:36:56;;;;;;;;;;;18.90;82.60;;;;;;5072902;28;19920;-84
2022/08/19 05:39:23;;;;;;;;;;;19.00;82.30;;;;;;5054954;28;20363;-85
2022/08/19 05:41:50;;;;;;;;;;;19.00;82.20;;;;;;5074526;28;19917;-84
2022/08/19 05:44:16;;;;;;;;;;;19.00;82.30;;;;;;5054637;28;20045;-84
2022/08/19 05:46:46;;;;;;;;;;;19.00;82.10;;;;;;5069003;28;19913;-84
2022/08/19 05:49:16;;;;;;;;;;;19.00;82.10;;;;;;5062416;28;21283;-83
2022/08/19 05:51:42;;;;;;;;;;;19.00;82.30;;;;;;5066445;28;20414;-83
2022/08/19 05:54:08;;;;;;;;;;;19.00;82.40;;;;;;5072255;28;19912;-84
2022/08/19 05:56:37;;;;;;;;;;;19.10;82.30;;;;;;5069936;28;20254;-83
2022/08/19 05:59:07;;;;;;;;;;;19.10;82.20;;;;;;5045580;28;19920;-84
2022/08/19 06:01:32;;;;;;;;;;;19.30;81.80;;;;;;5070192;28;19955;-84
2022/08/19 06:03:57;;;;;;;;;;;19.40;81.70;;;;;;5085111;28;19980;-84
2022/08/19 06:06:23;;;;;;;;;;;19.50;81.40;;;;;;5083557;28;19900;-84
2022/08/19 06:08:50;;;;;;;;;;;19.60;81.40;;;;;;5080283;28;19951;-84
2022/08/19 06:11:15;;;;;;;;;;;19.60;81.30;;;;;;5073782;28;19921;-85
2022/08/19 06:13:41;;;;;;;;;;;19.80;80.80;;;;;;5057964;28;19913;-84
2022/08/19 06:16:07;;;;;;;;;;;19.80;80.40;;;;;;5058750;28;19959;-84
2022/08/19 06:18:33;;;;;;;;;;;19.80;80.70;;;;;;5062826;28;20535;-88
2022/08/19 06:20:58;;;;;;;;;;;19.80;80.60;;;;;;5055727;28;19912;-83
2022/08/19 06:23:24;;;;;;;;;;;20.00;80.50;;;;;;5082060;28;19991;-83
2022/08/19 06:25:49;;;;;;;;;;;20.00;80.20;;;;;;5070113;28;20014;-85
2022/08/19 06:28:14;;;;;;;;;;;20.10;80.20;;;;;;5058617;28;19949;-84
2022/08/19 06:30:40;;;;;;;;;;;20.10;79.90;;;;;;5073640;28;19946;-85
2022/08/19 06:33:05;;;;;;;;;;;20.10;80.00;;;;;;5079108;28;19909;-86
2022/08/19 06:35:31;;;;;;;;;;;20.20;79.90;;;;;;5074281;28;19991;-85
2022/08/19 06:37:56;;;;;;;;;;;20.20;79.70;;;;;;5074667;28;19912;-86
2022/08/19 06:40:22;;;;;;;;;;;20.40;79.60;;;;;;5057322;28;20349;-86
2022/08/19 06:42:48;;;;;;;;;;;20.40;79.30;;;;;;5058213;28;19919;-85
2022/08/19 06:45:14;;;;;;;;;;;20.50;79.10;;;;;;5060808;28;19991;-86
2022/08/19 06:47:39;;;;;;;;;;;20.50;79.00;;;;;;5091390;28;19913;-85
2022/08/19 06:50:06;;;;;;;;;;;20.60;78.90;;;;;;5080222;28;19924;-85
2022/08/19 06:52:33;;;;;;;;;;;20.60;78.90;;;;;;5074788;28;19924;-84
2022/08/19 06:54:59;;;;;;;;;;;20.60;78.90;;;;;;5052982;28;19970;-84
2022/08/19 06:57:24;;;;;;;;;;;20.80;78.80;;;;;;5059995;28;19917;-85
2022/08/19 06:59:50;;;;;;;;;;;20.80;78.80;;;;;;5041752;28;19917;-82
2022/08/19 07:02:16;;;;;;;;;;;21.00;78.30;;;;;;5050789;28;20021;-84
2022/08/19 07:04:41;;;;;;;;;;;21.10;77.90;;;;;;5045465;28;19935;-84
2022/08/19 07:07:09;;;;;;;;;;;21.10;77.80;;;;;;5063580;28;19919;-84
2022/08/19 07:09:37;;;;;;;;;;;21.10;77.70;;;;;;5069287;28;19909;-84
2022/08/19 07:12:03;;;;;;;;;;;21.20;77.60;;;;;;5051881;28;19913;-84
2022/08/19 07:14:29;;;;;;;;;;;21.20;77.60;;;;;;5046791;28;20402;-86
2022/08/19 07:16:55;;;;;;;;;;;21.40;77.30;;;;;;5046817;28;19913;-82
2022/08/19 07:19:22;;;;;;;;;;;21.40;76.80;;;;;;5044812;28;20012;-82
2022/08/19 07:21:48;;;;;;;;;;;21.50;76.80;;;;;;5051584;28;20065;-82
2022/08/19 07:24:15;;;;;;;;;;;21.40;76.40;;;;;;5051829;28;19924;-81
2022/08/19 07:26:41;;;;;;;;;;;21.50;76.50;;;;;;5052128;28;20472;-82
2022/08/19 07:29:06;;;;;;;;;;;21.50;76.50;;;;;;5071558;28;19936;-84
2022/08/19 07:31:36;;;;;;;;;;;21.50;76.40;;;;;;5078287;28;20367;-82
2022/08/19 07:34:03;;;;;;;;;;;21.50;76.10;;;;;;5053964;28;19912;-82
2022/08/19 07:36:32;;;;;;;;;;;21.60;75.80;;;;;;5072152;28;19916;-82
2022/08/19 07:38:58;;;;;;;;;;;21.60;75.70;;;;;;5092213;28;19934;-82
2022/08/19 07:41:25;;;;;;;;;;;21.60;75.70;;;;;;5070882;28;19922;-83
2022/08/19 07:43:51;;;;;;;;;;;21.70;75.20;;;;;;5085879;28;19987;-82
2022/08/19 07:46:17;;;;;;;;;;;21.80;75.20;;;;;;5086185;28;19944;-82
2022/08/19 07:48:45;;;;;;;;;;;21.90;75.20;;;;;;5083946;28;19919;-83
2022/08/19 07:51:10;;;;;;;;;;;21.90;74.90;;;;;;5065186;28;20253;-82
2022/08/19 07:53:36;;;;;;;;;;;21.90;74.60;;;;;;5065143;28;19931;-83
2022/08/19 07:56:03;;;;;;;;;;;22.00;74.40;;;;;;5058537;28;19912;-82
2022/08/19 07:58:31;;;;;;;;;;;22.10;74.10;;;;;;5062254;28;19915;-83
2022/08/19 08:00:56;;;;;;;;;;;22.10;74.00;;;;;;5059309;28;19917;-83
2022/08/19 08:09:10;;;;;;;;;;;22.10;73.90;;;;;;5082580;28;19992;-82
2022/08/19 08:09:11;;;;;;;;;;;22.50;72.20;;;;;;5087168;28;19915;-83
2022/08/19 08:11:40;;;;;;;;;;;22.40;72.20;;;;;;5080869;28;19920;-82
2022/08/19 08:14:06;;;;;;;;;;;22.40;72.70;;;;;;5067145;28;20335;-83
2022/08/19 08:16:36;;;;;;;;;;;22.60;71.70;;;;;;5085614;28;19943;-83
2022/08/19 08:19:03;;;;;;;;;;;22.70;71.50;;;;;;5085705;28;19912;-83
2022/08/19 08:21:28;;;;;;;;;;;22.60;71.90;;;;;;5066452;28;19920;-83
2022/08/19 08:23:55;;;;;;;;;;;22.70;72.00;;;;;;5067212;28;20054;-83
2022/08/19 08:26:20;;;;;;;;;;;22.80;72.00;;;;;;5085922;28;19909;-83
2022/08/19 08:28:48;;;;;;;;;;;22.80;71.40;;;;;;5067004;28;19974;-83
2022/08/19 08:31:14;;;;;;;;;;;22.70;71.50;;;;;;5056998;28;19909;-84
2022/08/19 08:33:41;;;;;;;;;;;22.70;71.70;;;;;;5068911;28;19912;-82
2022/08/19 08:36:08;;;;;;;;;;;22.60;71.80;;;;;;5085038;28;19915;-83
2022/08/19 08:38:34;;;;;;;;;;;22.80;71.40;;;;;;5083847;28;19992;-83
2022/08/19 08:41:13;;;;;;;;;;;22.80;72.00;;;;;;5078594;22;19925;-82
2022/08/19 08:43:41;;;;;;;;;;;22.80;71.70;;;;;;5038991;28;19964;-82
2022/08/19 08:46:17;;;;;;;;;;;22.90;72.00;;;;;;5019945;28;19941;-82
2022/08/19 08:49:05;;;;;;;;;;;23.00;71.20;;;;;;5062436;28;19913;-82
2022/08/19 08:51:33;;;;;;;;;;;23.10;70.80;;;;;;5048056;28;19922;-82
2022/08/19 08:53:59;;;;;;;;;;;23.10;70.20;;;;;;5022621;28;19917;-84
2022/08/19 08:56:25;;;;;;;;;;;23.30;70.00;;;;;;5025329;28;20399;-83
2022/08/19 08:58:54;;;;;;;;;;;23.40;69.60;;;;;;5028013;28;19982;-83
2022/08/19 09:01:20;;;;;;;;;;;23.40;69.50;;;;;;5025781;28;19921;-83
2022/08/19 09:03:45;;;;;;;;;;;23.40;69.40;;;;;;5044008;28;19924;-83
2022/08/19 09:06:19;;;;;;;;;;;23.50;69.20;;;;;;5043985;28;19909;-84
2022/08/19 09:09:06;;;;;;;;;;;23.50;67.90;;;;;;5023102;28;19913;-84
2022/08/19 09:11:48;;;;;;;;;;;23.60;67.80;;;;;;5023217;28;19917;-84
2022/08/19 09:14:32;;;;;;;;;;;23.60;66.80;;;;;;5019478;28;19913;-84
2022/08/19 09:16:59;;;;;;;;;;;23.70;65.50;;;;;;5032284;28;19916;-84
2022/08/19 09:19:25;;;;;;;;;;;23.80;65.40;;;;;;5021592;28;19919;-84
2022/08/19 09:21:50;;;;;;;;;;;24.00;65.20;;;;;;5030183;28;19976;-84
2022/08/19 09:24:16;;;;;;;;;;;23.90;64.80;;;;;;5028892;28;20375;-84
2022/08/19 09:26:43;;;;;;;;;;;24.00;65.10;;;;;;5028951;28;19909;-83
2022/08/19 09:29:09;;;;;;;;;;;23.90;63.60;;;;;;5027109;28;19913;-83
2022/08/19 09:31:35;;;;;;;;;;;23.80;64.20;;;;;;5044362;28;20397;-83
2022/08/19 09:34:03;;;;;;;;;;;24.00;64.10;;;;;;5043853;28;19924;-84
2022/08/19 09:36:30;;;;;;;;;;;24.10;64.70;;;;;;5044555;28;19909;-84
2022/08/19 09:38:55;;;;;;;;;;;24.30;64.60;;;;;;5021733;28;19928;-84
2022/08/19 09:41:22;;;;;;;;;;;24.40;64.00;;;;;;5018941;28;19917;-84
2022/08/19 09:43:51;;;;;;;;;;;24.50;63.80;;;;;;5024845;28;19924;-84
2022/08/19 09:46:19;;;;;;;;;;;24.50;64.10;;;;;;5024262;28;19922;-84
2022/08/19 09:48:48;;;;;;;;;;;24.90;63.50;;;;;;5039644;28;19913;-84
2022/08/19 09:51:17;;;;;;;;;;;25.20;62.80;;;;;;5020684;28;20395;-84
2022/08/19 09:53:43;;;;;;;;;;;25.40;61.80;;;;;;5022249;28;20426;-85
2022/08/19 09:56:09;;;;;;;;;;;25.50;61.50;;;;;;5043287;28;19987;-84
2022/08/19 09:58:35;;;;;;;;;;;25.30;61.20;;;;;;5022543;28;20047;-84
2022/08/19 10:01:01;;;;;;;;;;;25.30;60.70;;;;;;5021449;28;19955;-83
2022/08/19 10:03:27;;;;;;;;;;;25.10;60.60;;;;;;5017593;28;19918;-84
2022/08/19 10:05:53;;;;;;;;;;;24.90;61.40;;;;;;5051301;28;19917;-83
2022/08/19 10:08:21;;;;;;;;;;;24.70;62.30;;;;;;5055309;28;19951;-82
2022/08/19 10:10:47;;;;;;;;;;;24.70;61.20;;;;;;5031042;28;19913;-83
2022/08/19 10:13:13;;;;;;;;;;;24.70;60.50;;;;;;5025937;28;19909;-83
2022/08/19 10:15:40;;;;;;;;;;;24.60;61.50;;;;;;5028142;28;19920;-83
2022/08/19 10:18:06;;;;;;;;;;;24.60;61.40;;;;;;5047106;28;19942;-83
2022/08/19 10:20:31;;;;;;;;;;;24.90;59.80;;;;;;5047090;28;19913;-84
2022/08/19 10:22:59;;;;;;;;;;;25.10;59.20;;;;;;5040726;28;19952;-83
2022/08/19 10:25:26;;;;;;;;;;;25.40;59.30;;;;;;5018316;28;19917;-83
2022/08/19 10:27:51;;;;;;;;;;;25.30;58.40;;;;;;5049926;28;20418;-84
2022/08/19 10:30:16;;;;;;;;;;;25.20;59.10;;;;;;5030023;28;19941;-83
2022/08/19 10:32:42;;;;;;;;;;;25.10;59.60;;;;;;5026454;28;19913;-83
2022/08/19 10:35:08;;;;;;;;;;;25.10;58.30;;;;;;5025519;28;20482;-82
2022/08/19 10:37:34;;;;;;;;;;;24.90;59.10;;;;;;5026513;28;19913;-82
2022/08/19 10:40:00;;;;;;;;;;;25.00;59.30;;;;;;5025859;28;19981;-83
2022/08/19 10:42:25;;;;;;;;;;;24.80;58.80;;;;;;5025816;28;19921;-84
2022/08/19 10:44:51;;;;;;;;;;;24.80;59.60;;;;;;5040203;28;19920;-83
2022/08/19 10:47:16;;;;;;;;;;;24.80;58.90;;;;;;5015544;28;20362;-82
2022/08/19 10:52:35;;;;;;;;;;;24.80;58.10;;;;;;5032536;28;19924;-83
2022/08/19 10:57:45;;;;;;;;;;;24.90;58.40;;;;;;5025796;28;19979;-82
2022/08/19 11:00:10;;;;;;;;;;;24.90;58.30;;;;;;5028311;28;19918;-81
2022/08/19 11:02:36;;;;;;;;;;;24.90;57.90;;;;;;5042444;28;19920;-81
2022/08/19 11:05:02;;;;;;;;;;;25.00;58.00;;;;;;5026429;28;19965;-81
2022/08/19 11:07:28;;;;;;;;;;;25.00;58.90;;;;;;5030670;28;19919;-81
2022/08/19 11:09:53;;;;;;;;;;;25.00;57.80;;;;;;5035402;28;19999;-80
2022/08/19 11:12:19;;;;;;;;;;;25.00;55.10;;;;;;5035722;28;19913;-82
2022/08/19 11:14:44;;;;;;;;;;;24.90;55.80;;;;;;5042014;28;19917;-86
2022/08/19 11:17:13;;;;;;;;;;;24.90;57.50;;;;;;5038364;28;19921;-81
2022/08/19 11:19:38;;;;;;;;;;;24.90;57.20;;;;;;5007953;28;19914;-80
2022/08/19 11:22:08;;;;;;;;;;;25.00;55.70;;;;;;5012568;28;20241;-81
2022/08/19 11:24:34;;;;;;;;;;;25.10;54.50;;;;;;5034321;28;19921;-80
2022/08/19 11:27:08;;;;;;;;;;;25.10;54.90;;;;;;5033650;28;20022;-80
2022/08/19 11:29:34;;;;;;;;;;;25.10;54.90;;;;;;5036797;28;19914;-81
2022/08/19 11:32:03;;;;;;;;;;;25.20;55.30;;;;;;5007183;28;19913;-81
2022/08/19 11:34:29;;;;;;;;;;;25.40;54.90;;;;;;5006626;28;19920;-81
2022/08/19 11:36:57;;;;;;;;;;;25.40;55.30;;;;;;5013755;28;19967;-82
2022/08/19 11:39:23;;;;;;;;;;;25.50;54.90;;;;;;5030533;28;20376;-82
2022/08/19 11:41:49;;;;;;;;;;;25.60;54.90;;;;;;5034375;28;19917;-81
2022/08/19 11:44:14;;;;;;;;;;;25.50;55.20;;;;;;5016483;28;19920;-82
2022/08/19 11:46:40;;;;;;;;;;;25.50;55.60;;;;;;5038346;28;19910;-82
2022/08/19 11:49:07;;;;;;;;;;;25.30;56.40;;;;;;5043910;28;19917;-82
2022/08/19 11:51:33;;;;;;;;;;;25.20;56.90;;;;;;5044936;28;19928;-82
2022/08/19 11:53:59;;;;;;;;;;;25.30;57.10;;;;;;5029686;28;20344;-82
2022/08/19 11:56:25;;;;;;;;;;;25.00;57.40;;;;;;5026659;28;19920;-82
2022/08/19 11:58:52;;;;;;;;;;;25.00;58.00;;;;;;5042833;28;19943;-82
2022/08/19 12:01:18;;;;;;;;;;;25.00;57.60;;;;;;5025452;28;20035;-82
2022/08/19 12:03:44;;;;;;;;;;;25.10;56.80;;;;;;5022775;28;19975;-82
2022/08/19 12:06:13;;;;;;;;;;;25.00;56.60;;;;;;5041346;28;19944;-82
2022/08/19 12:08:39;;;;;;;;;;;25.00;55.20;;;;;;5035078;28;19914;-82
2022/08/19 12:11:07;;;;;;;;;;;25.20;53.60;;;;;;5021242;28;20364;-82
2022/08/19 12:13:33;;;;;;;;;;;25.30;53.60;;;;;;5026326;28;19921;-82
2022/08/19 12:15:59;;;;;;;;;;;25.40;53.90;;;;;;5027669;28;19932;-82
2022/08/19 12:18:24;;;;;;;;;;;25.60;53.50;;;;;;5026154;28;19938;-82
2022/08/19 12:20:51;;;;;;;;;;;25.70;53.40;;;;;;5044409;28;19916;-82
2022/08/19 12:23:17;;;;;;;;;;;25.80;52.70;;;;;;5031360;28;19917;-82
2022/08/19 12:25:52;;;;;;;;;;;25.60;53.30;;;;;;5040282;28;19913;-82
2022/08/19 12:28:21;;;;;;;;;;;25.50;53.70;;;;;;5029053;28;19924;-82
2022/08/19 12:30:47;;;;;;;;;;;25.60;54.00;;;;;;5042357;28;19995;-82
2022/08/19 12:33:13;;;;;;;;;;;25.60;54.20;;;;;;5030530;28;19913;-82
2022/08/19 12:35:39;;;;;;;;;;;25.90;54.60;;;;;;5032167;28;20686;-81
2022/08/19 12:38:06;;;;;;;;;;;25.90;54.50;;;;;;5020028;28;19913;-80
2022/08/19 12:40:32;;;;;;;;;;;26.00;54.50;;;;;;5042870;28;20416;-81
2022/08/19 12:42:57;;;;;;;;;;;26.10;54.50;;;;;;5026230;28;19953;-81
2022/08/19 12:45:23;;;;;;;;;;;25.90;54.50;;;;;;5032811;28;19916;-81
2022/08/19 12:47:49;;;;;;;;;;;25.90;54.80;;;;;;5033076;28;19920;-81
2022/08/19 12:50:14;;;;;;;;;;;25.90;54.10;;;;;;5028160;28;19935;-81
2022/08/19 12:52:42;;;;;;;;;;;25.80;54.00;;;;;;5039814;28;19910;-82
2022/08/19 12:55:08;;;;;;;;;;;25.80;54.10;;;;;;5007450;28;19925;-83
2022/08/19 12:57:35;;;;;;;;;;;25.90;53.10;;;;;;5029599;28;19936;-83
2022/08/19 13:00:12;;;;;;;;;;;25.90;52.60;;;;;;5040855;28;20059;-83
2022/08/19 13:02:43;;;;;;;;;;;26.00;53.00;;;;;;5022752;28;20542;-81
2022/08/19 13:05:10;;;;;;;;;;;26.10;51.40;;;;;;5045641;28;20012;-81
2022/08/19 13:07:37;;;;;;;;;;;26.20;50.70;;;;;;5028158;28;19973;-82
2022/08/19 13:10:02;;;;;;;;;;;26.40;49.80;;;;;;5025103;28;20019;-81
2022/08/19 13:12:28;;;;;;;;;;;26.50;48.90;;;;;;5035696;28;19921;-79
2022/08/19 13:14:54;;;;;;;;;;;26.50;48.70;;;;;;5039964;28;19940;-80
2022/08/19 13:17:20;;;;;;;;;;;26.50;48.70;;;;;;5030225;28;20373;-81
2022/08/19 13:19:45;;;;;;;;;;;26.60;48.60;;;;;;5016432;28;19917;-81
2022/08/19 13:22:12;;;;;;;;;;;26.50;48.40;;;;;;5010037;28;19967;-82
2022/08/19 13:24:37;;;;;;;;;;;26.50;48.60;;;;;;5038540;28;19917;-81
2022/08/19 13:27:03;;;;;;;;;;;26.40;49.70;;;;;;5031446;28;19920;-82
2022/08/19 13:34:56;;;;;;;;;;;26.40;48.80;;;;;;5026859;28;20023;-81
2022/08/19 13:37:40;;;;;;;;;;;26.40;48.70;;;;;;5008747;28;19948;-80
2022/08/19 13:40:07;;;;;;;;;;;26.50;49.30;;;;;;5033993;28;19921;-80
2022/08/19 13:42:33;;;;;;;;;;;26.60;48.70;;;;;;5025084;28;19947;-81
2022/08/19 13:44:58;;;;;;;;;;;26.80;48.50;;;;;;5029161;28;20636;-80
2022/08/19 13:47:24;;;;;;;;;;;26.80;49.20;;;;;;5019085;28;19990;-81
2022/08/19 13:49:49;;;;;;;;;;;26.80;48.20;;;;;;5031188;28;19936;-81
2022/08/19 13:52:15;;;;;;;;;;;26.80;48.50;;;;;;5031141;28;20139;-81
2022/08/19 13:54:40;;;;;;;;;;;26.80;48.80;;;;;;5015587;28;19910;-81
2022/08/19 13:57:06;;;;;;;;;;;26.90;48.20;;;;;;5012415;28;19913;-81
2022/08/19 13:59:32;;;;;;;;;;;27.00;48.00;;;;;;5028517;28;19979;-80
2022/08/19 14:01:59;;;;;;;;;;;26.90;48.20;;;;;;5009637;28;19940;-81
2022/08/19 14:04:24;;;;;;;;;;;26.90;48.50;;;;;;5022155;28;19917;-82
2022/08/19 14:06:50;;;;;;;;;;;27.00;48.20;;;;;;5009838;28;19920;-81
2022/08/19 14:09:15;;;;;;;;;;;27.00;48.30;;;;;;5010377;28;20000;-81
2022/08/19 14:11:41;;;;;;;;;;;27.00;47.60;;;;;;5012459;28;19936;-81
2022/08/19 14:14:06;;;;;;;;;;;27.00;46.90;;;;;;5033625;28;20107;-81
2022/08/19 14:16:32;;;;;;;;;;;26.90;46.80;;;;;;5017296;28;20402;-81
2022/08/19 14:19:07;;;;;;;;;;;26.80;47.40;;;;;;5024098;28;19913;-80
2022/08/19 14:21:33;;;;;;;;;;;26.60;47.80;;;;;;5026003;28;20027;-81
2022/08/19 14:23:58;;;;;;;;;;;26.60;47.00;;;;;;5028591;28;20034;-81
2022/08/19 14:26:24;;;;;;;;;;;26.60;47.10;;;;;;5015524;28;20017;-81
2022/08/19 14:28:52;;;;;;;;;;;26.50;47.60;;;;;;5004211;28;19968;-81
2022/08/19 14:31:19;;;;;;;;;;;26.80;46.10;;;;;;5011236;28;19913;-81
2022/08/19 14:33:48;;;;;;;;;;;26.90;45.50;;;;;;5011697;28;19920;-81
2022/08/19 14:36:14;;;;;;;;;;;26.80;47.10;;;;;;5034687;28;19920;-82
2022/08/19 14:38:40;;;;;;;;;;;26.80;46.40;;;;;;5030086;28;20295;-81
